Weather at Buckley Space Force Base

Public forecast

Using degrees Fahrenheit for public forecast. Weather courtesy of forecast.io.

Current aviation weather report (METAR) for Buckley Space Force Base

Retrieved 2021/10/21 22:58 UTC (51 minutes ago):

KBKF 212258Z 11004KT 10SM FEW130 FEW200 18/M09 A3023 RMK AO2A SLP197 T01821089

Aviation forecast (TAF) for Buckley Space Force Base

Forecast is more than 6 hours old.

Retrieved 2021/10/21 17:03 UTC (7 hours ago):

TAF TAF KBKF 211700Z 2117/2223 VRB06KT 9999 SCT100 BKN200 510006 QNH3031INS BECMG 2118/2119 24009KT 9999 BKN150 510006 QNH3033INS BECMG 2203/2204 19006KT 9999 SKC QNH3027INS TX15/2122Z TN04/2209Z